Aviation Digital Data Service (ADDS)

Output produced by METARs form (0324 UTC 19 August 2019)
found at http://www.aviationweather.gov/metar/data/
 
METAR text: RPMD 190300Z 16005KT 9999 SCT016 BKN290 31/24 Q1010 RMK A2983
Conditions at: RPMD (DAVAO/FRANCISCO , PH) observed 0300 UTC 19 August 2019
Temperature: 31.0°C (88°F)
Dewpoint: 24.0°C (75°F) [RH = 66%]
Pressure (altimeter): 29.82 inches Hg (1010.0 mb)
Winds: from the SSE (160 degrees) at 6 MPH (5 knots; 2.6 m/s)
Visibility: 6 or more miles (10+ km)
Ceiling: 29000 feet AGL
Clouds: scattered clouds at 1600 feet AGL
broken clouds at 29000 feet AGL
Weather: no significant weather observed at this time

METAR text: RPMD 190200Z 12005KT 9999 FEW016 BKN290 31/24 Q1010 RMK A2983
Conditions at: RPMD (DAVAO/FRANCISCO , PH) observed 0200 UTC 19 August 2019
Temperature: 31.0°C (88°F)
Dewpoint: 24.0°C (75°F) [RH = 66%]
Pressure (altimeter): 29.82 inches Hg (1010.0 mb)
Winds: from the ESE (120 degrees) at 6 MPH (5 knots; 2.6 m/s)
Visibility: 6 or more miles (10+ km)
Ceiling: 29000 feet AGL
Clouds: few clouds at 1600 feet AGL
broken clouds at 29000 feet AGL
Weather: no significant weather observed at this time

METAR text: RPMD 190100Z 00000KT 9999 FEW016 SCT290 29/25 Q1011 RMK A2985
Conditions at: RPMD (DAVAO/FRANCISCO , PH) observed 0100 UTC 19 August 2019
Temperature: 29.0°C (84°F)
Dewpoint: 25.0°C (77°F) [RH = 79%]
Pressure (altimeter): 29.85 inches Hg (1011.0 mb)
Winds: calm
Visibility: 6 or more miles (10+ km)
Ceiling: at least 12,000 feet AGL
Clouds: few clouds at 1600 feet AGL
scattered clouds at 29000 feet AGL
Weather: no significant weather observed at this time

METAR text: RPMD 190000Z 07003KT 9999 FEW016 SCT290 28/24 Q1011 RMK A2985
Conditions at: RPMD (DAVAO/FRANCISCO , PH) observed 0000 UTC 19 August 2019
Temperature: 28.0°C (82°F)
Dewpoint: 24.0°C (75°F) [RH = 79%]
Pressure (altimeter): 29.85 inches Hg (1011.0 mb)
Winds: from the ENE (70 degrees) at 3 MPH (3 knots; 1.5 m/s)
Visibility: 6 or more miles (10+ km)
Ceiling: at least 12,000 feet AGL
Clouds: few clouds at 1600 feet AGL
scattered clouds at 29000 feet AGL
Weather: no significant weather observed at this time

METAR text: RPMD 182300Z 07002KT 9999 FEW016 27/25 Q1010 RMK A2983
Conditions at: RPMD (DAVAO/FRANCISCO , PH) observed 2300 UTC 18 August 2019
Temperature: 27.0°C (81°F)
Dewpoint: 25.0°C (77°F) [RH = 89%]
Pressure (altimeter): 29.82 inches Hg (1010.0 mb)
Winds: from the ENE (70 degrees) at 2 MPH (2 knots; 1.0 m/s)
Visibility: 6 or more miles (10+ km)
Ceiling: at least 12,000 feet AGL
Clouds: few clouds at 1600 feet AGL
Weather: no significant weather observed at this time

METAR text: RPMD 182200Z 34003KT 9999 FEW016 SCT290 24/23 Q1010 RMK A2983
Conditions at: RPMD (DAVAO/FRANCISCO , PH) observed 2200 UTC 18 August 2019
Temperature: 24.0°C (75°F)
Dewpoint: 23.0°C (73°F) [RH = 94%]
Pressure (altimeter): 29.82 inches Hg (1010.0 mb)
Winds: from the NNW (340 degrees) at 3 MPH (3 knots; 1.5 m/s)
Visibility: 6 or more miles (10+ km)
Ceiling: at least 12,000 feet AGL
Clouds: few clouds at 1600 feet AGL
scattered clouds at 29000 feet AGL
Weather: no significant weather observed at this time

METAR text: RPMD 182100Z 32003KT 290V350 9999 FEW016 SCT290 24/23 Q1010 RMK A2983
Conditions at: RPMD (DAVAO/FRANCISCO , PH) observed 2100 UTC 18 August 2019
Temperature: 24.0°C (75°F)
Dewpoint: 23.0°C (73°F) [RH = 94%]
Pressure (altimeter): 29.82 inches Hg (1010.0 mb)
Winds: from the NW (320 degrees) at 3 MPH (3 knots; 1.5 m/s)
Visibility: 6 or more miles (10+ km)
Ceiling: at least 12,000 feet AGL
Clouds: few clouds at 1600 feet AGL
scattered clouds at 29000 feet AGL
Weather: no significant weather observed at this time

METAR text: RPMD 182000Z 29002KT 9999 FEW016 SCT290 24/24 Q1009 RMK A2980
Conditions at: RPMD (DAVAO/FRANCISCO , PH) observed 2000 UTC 18 August 2019
Temperature: 24.0°C (75°F)
Dewpoint: 24.0°C (75°F) [RH = 100%]
Pressure (altimeter): 29.79 inches Hg (1009.0 mb)
Winds: from the WNW (290 degrees) at 2 MPH (2 knots; 1.0 m/s)
Visibility: 6 or more miles (10+ km)
Ceiling: at least 12,000 feet AGL
Clouds: few clouds at 1600 feet AGL
scattered clouds at 29000 feet AGL
Weather: no significant weather observed at this time

METAR text: RPMD 181900Z 33003KT 290V360 9999 FEW016 SCT290 25/23 Q1009 RMK A2980
Conditions at: RPMD (DAVAO/FRANCISCO , PH) observed 1900 UTC 18 August 2019
Temperature: 25.0°C (77°F)
Dewpoint: 23.0°C (73°F) [RH = 89%]
Pressure (altimeter): 29.79 inches Hg (1009.0 mb)
Winds: from the NNW (330 degrees) at 3 MPH (3 knots; 1.5 m/s)
Visibility: 6 or more miles (10+ km)
Ceiling: at least 12,000 feet AGL
Clouds: few clouds at 1600 feet AGL
scattered clouds at 29000 feet AGL
Weather: no significant weather observed at this time

METAR text: RPMD 181800Z VRB02KT 9999 FEW016 SCT290 25/24 Q1009 RMK A2980
Conditions at: RPMD (DAVAO/FRANCISCO , PH) observed 1800 UTC 18 August 2019
Temperature: 25.0°C (77°F)
Dewpoint: 24.0°C (75°F) [RH = 94%]
Pressure (altimeter): 29.79 inches Hg (1009.0 mb)
Winds: variable direction winds at 2 MPH (2 knots; 1.0 m/s)
Visibility: 6 or more miles (10+ km)
Ceiling: at least 12,000 feet AGL
Clouds: few clouds at 1600 feet AGL
scattered clouds at 29000 feet AGL
Weather: no significant weather observed at this time

METAR text: RPMD 181700Z 33003KT 9999 FEW016 SCT290 25/25 Q1010 RMK A2983
Conditions at: RPMD (DAVAO/FRANCISCO , PH) observed 1700 UTC 18 August 2019
Temperature: 25.0°C (77°F)
Dewpoint: 25.0°C (77°F) [RH = 100%]
Pressure (altimeter): 29.82 inches Hg (1010.0 mb)
Winds: from the NNW (330 degrees) at 3 MPH (3 knots; 1.5 m/s)
Visibility: 6 or more miles (10+ km)
Ceiling: at least 12,000 feet AGL
Clouds: few clouds at 1600 feet AGL
scattered clouds at 29000 feet AGL
Weather: no significant weather observed at this time

METAR text: RPMD 181600Z VRB02KT 9999 SCT016 SCT090 BKN290 26/25 Q1010 RERA RMK A2983
Conditions at: RPMD (DAVAO/FRANCISCO , PH) observed 1600 UTC 18 August 2019
Temperature: 26.0°C (79°F)
Dewpoint: 25.0°C (77°F) [RH = 94%]
Pressure (altimeter): 29.82 inches Hg (1010.0 mb)
Winds: variable direction winds at 2 MPH (2 knots; 1.0 m/s)
Visibility: 6 or more miles (10+ km)
Ceiling: 29000 feet AGL
Clouds: scattered clouds at 1600 feet AGL
scattered clouds at 9000 feet AGL
broken clouds at 29000 feet AGL
Weather: no significant weather observed at this time

METAR text: RPMD 181500Z VRB02KT 9999 FEW015CB BKN290 26/26 Q1011 RMK A2985 CB S
Conditions at: RPMD (DAVAO/FRANCISCO , PH) observed 1500 UTC 18 August 2019
Temperature: 26.0°C (79°F)
Dewpoint: 26.0°C (79°F) [RH = 100%]
Pressure (altimeter): 29.85 inches Hg (1011.0 mb)
Winds: variable direction winds at 2 MPH (2 knots; 1.0 m/s)
Visibility: 6 or more miles (10+ km)
Ceiling: 29000 feet AGL
Clouds: few clouds at 1500 feet AGL
broken clouds at 29000 feet AGL
Weather: no significant weather observed at this time

METAR text: RPMD 181400Z 33003KT 300V360 9999 FEW016 ST290 26/26 Q1011 RMK A2985
Conditions at: RPMD (DAVAO/FRANCISCO , PH) observed 1400 UTC 18 August 2019
Temperature: 26.0°C (79°F)
Dewpoint: 26.0°C (79°F) [RH = 100%]
Pressure (altimeter): 29.85 inches Hg (1011.0 mb)
Winds: from the NNW (330 degrees) at 3 MPH (3 knots; 1.5 m/s)
Visibility: 6 or more miles (10+ km)
Ceiling: at least 12,000 feet AGL
Clouds: few clouds at 1600 feet AGL
Weather: no significant weather observed at this time

METAR text: RPMD 181300Z 05003KT 9999 FEW016 BKN260 26/26 Q1011 RMK A2985
Conditions at: RPMD (DAVAO/FRANCISCO , PH) observed 1300 UTC 18 August 2019
Temperature: 26.0°C (79°F)
Dewpoint: 26.0°C (79°F) [RH = 100%]
Pressure (altimeter): 29.85 inches Hg (1011.0 mb)
Winds: from the NE (50 degrees) at 3 MPH (3 knots; 1.5 m/s)
Visibility: 6 or more miles (10+ km)
Ceiling: 26000 feet AGL
Clouds: few clouds at 1600 feet AGL
broken clouds at 26000 feet AGL
Weather: no significant weather observed at this time

METAR text: RPMD 181200Z 15002KT 8000 RA FEW016 BKN090 OVC260 27/27 Q1011 RMK A2985
Conditions at: RPMD (DAVAO/FRANCISCO , PH) observed 1200 UTC 18 August 2019
Temperature: 27.0°C (81°F)
Dewpoint: 27.0°C (81°F) [RH = 100%]
Pressure (altimeter): 29.85 inches Hg (1011.0 mb)
Winds: from the SSE (150 degrees) at 2 MPH (2 knots; 1.0 m/s)
Visibility: 5 miles ( 8 km)
Ceiling: 9000 feet AGL
Clouds: few clouds at 1600 feet AGL
broken clouds at 9000 feet AGL
overcast cloud deck at 26000 feet AGL
Weather: RA  (moderate rain)

METAR text: RPMD 181100Z 19006KT 160V240 8000 SCT016 OVC090 27/26 Q1010 RMK A29823
Conditions at: RPMD (DAVAO/FRANCISCO , PH) observed 1100 UTC 18 August 2019
Temperature: 27.0°C (81°F)
Dewpoint: 26.0°C (79°F) [RH = 94%]
Pressure (altimeter): 29.82 inches Hg (1010.0 mb)
Winds: from the S (190 degrees) at 7 MPH (6 knots; 3.1 m/s)
Visibility: 5 miles ( 8 km)
Ceiling: 9000 feet AGL
Clouds: scattered clouds at 1600 feet AGL
overcast cloud deck at 9000 feet AGL
Weather: no significant weather observed at this time

METAR text: RPMD 181000Z 17006KT 9999 FEW015CB BKN090 BKN260 28/25 Q1009 RMK A2980 CB NNW-NE TCU W
Conditions at: RPMD (DAVAO/FRANCISCO , PH) observed 1000 UTC 18 August 2019
Temperature: 28.0°C (82°F)
Dewpoint: 25.0°C (77°F) [RH = 84%]
Pressure (altimeter): 29.79 inches Hg (1009.0 mb)
Winds: from the S (170 degrees) at 7 MPH (6 knots; 3.1 m/s)
Visibility: 6 or more miles (10+ km)
Ceiling: 9000 feet AGL
Clouds: few clouds at 1500 feet AGL
broken clouds at 9000 feet AGL
broken clouds at 26000 feet AGL
Weather: no significant weather observed at this time

METAR text: RPMD 180900Z 18009KT 9999 SCT015CB SCT290 29/25 Q1008 RMK A2977 CB NE, SE WSW-W
Conditions at: RPMD (DAVAO/FRANCISCO , PH) observed 0900 UTC 18 August 2019
Temperature: 29.0°C (84°F)
Dewpoint: 25.0°C (77°F) [RH = 79%]
Pressure (altimeter): 29.76 inches Hg (1008.0 mb)
Winds: from the S (180 degrees) at 10 MPH (9 knots; 4.6 m/s)
Visibility: 6 or more miles (10+ km)
Ceiling: at least 12,000 feet AGL
Clouds: scattered clouds at 1500 feet AGL
scattered clouds at 29000 feet AGL
Weather: no significant weather observed at this time

METAR text: RPMD 180800Z 27003KT 220V320 9999 SCT015CB SCT290 29/22 Q1008 RMK A2977 CB NNE-SE WSW-W NW
Conditions at: RPMD (DAVAO/FRANCISCO , PH) observed 0800 UTC 18 August 2019
Temperature: 29.0°C (84°F)
Dewpoint: 22.0°C (72°F) [RH = 66%]
Pressure (altimeter): 29.76 inches Hg (1008.0 mb)
Winds: from the W (270 degrees) at 3 MPH (3 knots; 1.5 m/s)
Visibility: 6 or more miles (10+ km)
Ceiling: at least 12,000 feet AGL
Clouds: scattered clouds at 1500 feet AGL
scattered clouds at 29000 feet AGL
Weather: no significant weather observed at this time

METAR text: RPMD 180700Z 17006KT 140V210 9999 SCT015CB 32/21 Q1008 RMK A2977 CB NE, E SW W-NNW
Conditions at: RPMD (DAVAO/FRANCISCO , PH) observed 0700 UTC 18 August 2019
Temperature: 32.0°C (90°F)
Dewpoint: 21.0°C (70°F) [RH = 52%]
Pressure (altimeter): 29.76 inches Hg (1008.0 mb)
Winds: from the S (170 degrees) at 7 MPH (6 knots; 3.1 m/s)
Visibility: 6 or more miles (10+ km)
Ceiling: at least 12,000 feet AGL
Clouds: scattered clouds at 1500 feet AGL
Weather: no significant weather observed at this time

METAR text: RPMD 180600Z 17007KT 140V210 9999 SCT015CB 32/24 Q1008 RMK A2977 CB W-NNW, N, NE, E, S
Conditions at: RPMD (DAVAO/FRANCISCO , PH) observed 0600 UTC 18 August 2019
Temperature: 32.0°C (90°F)
Dewpoint: 24.0°C (75°F) [RH = 63%]
Pressure (altimeter): 29.76 inches Hg (1008.0 mb)
Winds: from the S (170 degrees) at 8 MPH (7 knots; 3.6 m/s)
Visibility: 6 or more miles (10+ km)
Ceiling: at least 12,000 feet AGL
Clouds: scattered clouds at 1500 feet AGL
Weather: no significant weather observed at this time

METAR text: RPMD 180500Z 16006KT 120V200 9999 SCT015CB BKN290 31/24 Q1009 RMK A2980 CB WNW-NW, NNE, S, SW, WSW
Conditions at: RPMD (DAVAO/FRANCISCO , PH) observed 0500 UTC 18 August 2019
Temperature: 31.0°C (88°F)
Dewpoint: 24.0°C (75°F) [RH = 66%]
Pressure (altimeter): 29.79 inches Hg (1009.0 mb)
Winds: from the SSE (160 degrees) at 7 MPH (6 knots; 3.1 m/s)
Visibility: 6 or more miles (10+ km)
Ceiling: 29000 feet AGL
Clouds: scattered clouds at 1500 feet AGL
broken clouds at 29000 feet AGL
Weather: no significant weather observed at this time

METAR text: RPMD 180400Z 17005KT 9999 FEW015CB BKN290 30/24 Q1011 RMK A2985 CB S, SW, WSW
Conditions at: RPMD (DAVAO/FRANCISCO , PH) observed 0400 UTC 18 August 2019
Temperature: 30.0°C (86°F)
Dewpoint: 24.0°C (75°F) [RH = 70%]
Pressure (altimeter): 29.85 inches Hg (1011.0 mb)
Winds: from the S (170 degrees) at 6 MPH (5 knots; 2.6 m/s)
Visibility: 6 or more miles (10+ km)
Ceiling: 29000 feet AGL
Clouds: few clouds at 1500 feet AGL
broken clouds at 29000 feet AGL
Weather: no significant weather observed at this time

METAR text: RPMD 180300Z 13004KT 9999 FEW016 BKN290 29/24 Q1012 RMK A2988
Conditions at: RPMD (DAVAO/FRANCISCO , PH) observed 0300 UTC 18 August 2019
Temperature: 29.0°C (84°F)
Dewpoint: 24.0°C (75°F) [RH = 74%]
Pressure (altimeter): 29.88 inches Hg (1012.0 mb)
Winds: from the SE (130 degrees) at 5 MPH (4 knots; 2.1 m/s)
Visibility: 6 or more miles (10+ km)
Ceiling: 29000 feet AGL
Clouds: few clouds at 1600 feet AGL
broken clouds at 29000 feet AGL
Weather: no significant weather observed at this time

METAR text: RPMD 180200Z 16005KT 110V240 9999 FEW016 BKN290 28/24 Q1013 RMK A2991
Conditions at: RPMD (DAVAO/FRANCISCO , PH) observed 0200 UTC 18 August 2019
Temperature: 28.0°C (82°F)
Dewpoint: 24.0°C (75°F) [RH = 79%]
Pressure (altimeter): 29.91 inches Hg (1013.0 mb)
Winds: from the SSE (160 degrees) at 6 MPH (5 knots; 2.6 m/s)
Visibility: 6 or more miles (10+ km)
Ceiling: 29000 feet AGL
Clouds: few clouds at 1600 feet AGL
broken clouds at 29000 feet AGL
Weather: no significant weather observed at this time

METAR text: RPMD 180100Z 12006KT 9999 FEW016 BKN290 28/24 Q1013 RMK A2991
Conditions at: RPMD (DAVAO/FRANCISCO , PH) observed 0100 UTC 18 August 2019
Temperature: 28.0°C (82°F)
Dewpoint: 24.0°C (75°F) [RH = 79%]
Pressure (altimeter): 29.91 inches Hg (1013.0 mb)
Winds: from the ESE (120 degrees) at 7 MPH (6 knots; 3.1 m/s)
Visibility: 6 or more miles (10+ km)
Ceiling: 29000 feet AGL
Clouds: few clouds at 1600 feet AGL
broken clouds at 29000 feet AGL
Weather: no significant weather observed at this time

METAR text: RPMD 180000Z 17002KT 9999 FEW016 SCT090 28/24 Q1013 RMK A2991
Conditions at: RPMD (DAVAO/FRANCISCO , PH) observed 0000 UTC 18 August 2019
Temperature: 28.0°C (82°F)
Dewpoint: 24.0°C (75°F) [RH = 79%]
Pressure (altimeter): 29.91 inches Hg (1013.0 mb)
Winds: from the S (170 degrees) at 2 MPH (2 knots; 1.0 m/s)
Visibility: 6 or more miles (10+ km)
Ceiling: at least 12,000 feet AGL
Clouds: few clouds at 1600 feet AGL
scattered clouds at 9000 feet AGL
Weather: no significant weather observed at this time

METAR text: RPMD 172300Z 33002KT 9999 FEW016 BKN090 25/24 Q1012 RMK A2988
Conditions at: RPMD (DAVAO/FRANCISCO , PH) observed 2300 UTC 17 August 2019
Temperature: 25.0°C (77°F)
Dewpoint: 24.0°C (75°F) [RH = 94%]
Pressure (altimeter): 29.88 inches Hg (1012.0 mb)
Winds: from the NNW (330 degrees) at 2 MPH (2 knots; 1.0 m/s)
Visibility: 6 or more miles (10+ km)
Ceiling: 9000 feet AGL
Clouds: few clouds at 1600 feet AGL
broken clouds at 9000 feet AGL
Weather: no significant weather observed at this time

METAR text: RPMD 172200Z 32002KT 9999 SCT016 SCT290 24/24 Q1012 RMK A2988
Conditions at: RPMD (DAVAO/FRANCISCO , PH) observed 2200 UTC 17 August 2019
Temperature: 24.0°C (75°F)
Dewpoint: 24.0°C (75°F) [RH = 100%]
Pressure (altimeter): 29.88 inches Hg (1012.0 mb)
Winds: from the NW (320 degrees) at 2 MPH (2 knots; 1.0 m/s)
Visibility: 6 or more miles (10+ km)
Ceiling: at least 12,000 feet AGL
Clouds: scattered clouds at 1600 feet AGL
scattered clouds at 29000 feet AGL
Weather: no significant weather observed at this time

METAR text: RPMD 172100Z 32002KT 9999 FEW016 BKN090 BKN290 24/24 Q1012 RMK A2988
Conditions at: RPMD (DAVAO/FRANCISCO , PH) observed 2100 UTC 17 August 2019
Temperature: 24.0°C (75°F)
Dewpoint: 24.0°C (75°F) [RH = 100%]
Pressure (altimeter): 29.88 inches Hg (1012.0 mb)
Winds: from the NW (320 degrees) at 2 MPH (2 knots; 1.0 m/s)
Visibility: 6 or more miles (10+ km)
Ceiling: 9000 feet AGL
Clouds: few clouds at 1600 feet AGL
broken clouds at 9000 feet AGL
broken clouds at 29000 feet AGL
Weather: no significant weather observed at this time

METAR text: RPMD 172000Z 33001KT 9999 SCT016 BKN090 BKN290 24/24 Q1012 RERA RMK A2988
Conditions at: RPMD (DAVAO/FRANCISCO , PH) observed 2000 UTC 17 August 2019
Temperature: 24.0°C (75°F)
Dewpoint: 24.0°C (75°F) [RH = 100%]
Pressure (altimeter): 29.88 inches Hg (1012.0 mb)
Winds: from the NNW (330 degrees) at 1 MPH (1 knots; 0.5 m/s)
Visibility: 6 or more miles (10+ km)
Ceiling: 9000 feet AGL
Clouds: scattered clouds at 1600 feet AGL
broken clouds at 9000 feet AGL
broken clouds at 29000 feet AGL
Weather: no significant weather observed at this time

METAR text: RPMD 171900Z 23002KT 9999 -RA SCT016 BKN090 OVC290 24/24 Q1012 RMK A2988
Conditions at: RPMD (DAVAO/FRANCISCO , PH) observed 1900 UTC 17 August 2019
Temperature: 24.0°C (75°F)
Dewpoint: 24.0°C (75°F) [RH = 100%]
Pressure (altimeter): 29.88 inches Hg (1012.0 mb)
Winds: from the SW (230 degrees) at 2 MPH (2 knots; 1.0 m/s)
Visibility: 6 or more miles (10+ km)
Ceiling: 9000 feet AGL
Clouds: scattered clouds at 1600 feet AGL
broken clouds at 9000 feet AGL
overcast cloud deck at 29000 feet AGL
Weather: -RA  (light rain)

METAR text: RPMD 171800Z 33002KT 9999 SCT016 BKN090 OVC290 23/23 Q1012 RMK A2988
Conditions at: RPMD (DAVAO/FRANCISCO , PH) observed 1800 UTC 17 August 2019
Temperature: 23.0°C (73°F)
Dewpoint: 23.0°C (73°F) [RH = 100%]
Pressure (altimeter): 29.88 inches Hg (1012.0 mb)
Winds: from the NNW (330 degrees) at 2 MPH (2 knots; 1.0 m/s)
Visibility: 6 or more miles (10+ km)
Ceiling: 9000 feet AGL
Clouds: scattered clouds at 1600 feet AGL
broken clouds at 9000 feet AGL
overcast cloud deck at 29000 feet AGL
Weather: no significant weather observed at this time

METAR text: RPMD 171700Z VRB01KT 9999 SCT016 SCT090 BKN290 23/23 Q1012 RMK A2988
Conditions at: RPMD (DAVAO/FRANCISCO , PH) observed 1700 UTC 17 August 2019
Temperature: 23.0°C (73°F)
Dewpoint: 23.0°C (73°F) [RH = 100%]
Pressure (altimeter): 29.88 inches Hg (1012.0 mb)
Winds: variable direction winds at 1 MPH (1 knots; 0.5 m/s)
Visibility: 6 or more miles (10+ km)
Ceiling: 29000 feet AGL
Clouds: scattered clouds at 1600 feet AGL
scattered clouds at 9000 feet AGL
broken clouds at 29000 feet AGL
Weather: no significant weather observed at this time

METAR text: RPMD 171600Z VRB02KT 9999 FEW016 BKN290 23/23 Q1013 RMK A2991
Conditions at: RPMD (DAVAO/FRANCISCO , PH) observed 1600 UTC 17 August 2019
Temperature: 23.0°C (73°F)
Dewpoint: 23.0°C (73°F) [RH = 100%]
Pressure (altimeter): 29.91 inches Hg (1013.0 mb)
Winds: variable direction winds at 2 MPH (2 knots; 1.0 m/s)
Visibility: 6 or more miles (10+ km)
Ceiling: 29000 feet AGL
Clouds: few clouds at 1600 feet AGL
broken clouds at 29000 feet AGL
Weather: no significant weather observed at this time

Forecast for: RPMD (DAVAO/FRANCISCO , PH)
Text: TAF RPMD 182300Z 1900/1924 16005KT 9999 FEW016 SCT290
Forecast period: 0000 UTC 19 August 2019 to 0000 UTC 20 August 2019
Forecast type: FROM: standard forecast or significant change
Winds: from the SSE (160 degrees) at 6 MPH (5 knots; 2.6 m/s)
Visibility: 6 or more miles 10+ km)
Ceiling: at least 12,000 feet AGL
Clouds: few clouds at 1600 feet AGL
scattered clouds at 29000 feet AGL
Weather: no significant weather forecast for this period
Text: TEMPO 1900/1906 13010KT FEW016 SCT090 BKN290
Forecast period: 0000 to 0600 UTC 19 August 2019
Forecast type: TEMPORARY: The following changes expected for less than half the time period
Winds: from the SE (130 degrees) at 12 MPH (10 knots; 5.1 m/s)
Visibility: missing
Ceiling: 29000 feet AGL
Clouds: few clouds at 1600 feet AGL
scattered clouds at 9000 feet AGL
broken clouds at 29000 feet AGL
Weather: no significant weather forecast for this period